Time;durP1;ratioP1;P1;durP2;ratioP2;P2;SDS_P1;SDS_P2;PMS_P1;PMS_P2;Temp;Humidity;BMP_temperature;BMP_pressure;BME280_temperature;BME280_humidity;BME280_pressure;Samples;Min_cycle;Max_cycle;Signal;HPM_P1;HPM_P2
2024/02/09 00:01:12;;;;;;;2.40;2.10;;;;;;;0.88;100.00;98526.13;5000546;28;20307;-86
2024/02/09 00:03:38;;;;;;;2.40;2.20;;;;;;;0.87;100.00;98520.97;4999470;28;20211;-87
2024/02/09 00:06:07;;;;;;;3.00;2.40;;;;;;;0.86;100.00;98520.13;5002395;28;20215;-84
2024/02/09 00:08:35;;;;;;;2.60;2.07;;;;;;;0.87;100.00;98518.34;4997773;28;20871;-85
2024/02/09 00:11:02;;;;;;;2.40;2.20;;;;;;;0.87;100.00;98513.09;4994462;28;20198;-84
2024/02/09 00:13:28;;;;;;;3.57;2.50;;;;;;;0.85;100.00;98514.97;4996872;28;20204;-85
2024/02/09 00:15:55;;;;;;;4.20;2.37;;;;;;;0.85;100.00;98504.47;5004281;28;20273;-85
2024/02/09 00:18:22;;;;;;;2.70;2.30;;;;;;;0.88;100.00;98501.69;4999706;28;20231;-84
2024/02/09 00:20:50;;;;;;;3.30;2.50;;;;;;;0.90;100.00;98499.78;4999174;28;20210;-86
2024/02/09 00:23:19;;;;;;;3.13;2.10;;;;;;;0.91;100.00;98498.88;4996525;28;20242;-84
2024/02/09 00:25:49;;;;;;;2.60;2.37;;;;;;;0.94;100.00;98496.06;4997139;28;20870;-84
2024/02/09 00:28:16;;;;;;;2.80;2.20;;;;;;;0.97;100.00;98493.28;5000371;28;20226;-83
2024/02/09 00:30:42;;;;;;;2.73;2.23;;;;;;;0.92;100.00;98480.44;4998520;28;20226;-85
2024/02/09 00:33:09;;;;;;;2.90;2.17;;;;;;;0.91;100.00;98475.28;4993127;28;20222;-84
2024/02/09 00:35:39;;;;;;;2.77;2.43;;;;;;;0.93;100.00;98476.03;5001254;28;20375;-86
2024/02/09 00:38:05;;;;;;;2.87;2.30;;;;;;;0.91;100.00;98470.88;4997680;28;20243;-86
2024/02/09 00:40:33;;;;;;;2.80;2.47;;;;;;;0.94;100.00;98464.63;4994437;28;20212;-84
2024/02/09 00:43:02;;;;;;;3.10;2.60;;;;;;;0.95;100.00;98461.06;4998816;28;20199;-86
2024/02/09 00:45:30;;;;;;;2.63;2.27;;;;;;;0.97;100.00;98457.44;4990780;28;20235;-87
2024/02/09 00:47:57;;;;;;;3.27;2.80;;;;;;;0.97;100.00;98452.19;4998738;28;20238;-85
2024/02/09 00:50:23;;;;;;;3.53;2.80;;;;;;;0.98;100.00;98453.03;4996558;28;20203;-86
2024/02/09 00:52:50;;;;;;;3.50;2.90;;;;;;;1.04;100.00;98455.28;5001029;28;20653;-84
2024/02/09 00:55:18;;;;;;;3.57;2.97;;;;;;;1.07;100.00;98446.41;4997762;28;20218;-86
2024/02/09 00:57:46;;;;;;;2.97;2.23;;;;;;;1.12;100.00;98453.03;5000936;28;20203;-84
2024/02/09 01:00:14;;;;;;;3.03;2.67;;;;;;;1.15;100.00;98444.16;4996946;28;20218;-84
2024/02/09 01:02:41;;;;;;;3.20;2.57;;;;;;;1.16;100.00;98432.72;4996398;28;20223;-84
2024/02/09 01:05:13;;;;;;;2.87;2.40;;;;;;;1.15;100.00;98444.16;4998899;28;20209;-83
2024/02/09 01:07:41;;;;;;;2.97;2.30;;;;;;;1.18;100.00;98433.50;4994678;28;20661;-84
2024/02/09 01:10:09;;;;;;;2.43;2.17;;;;;;;1.20;100.00;98436.88;4994427;28;20208;-83
2024/02/09 02:45:48;;;;;;;3.50;2.90;;;;;;;1.41;100.00;98311.47;4998215;28;20282;-83
2024/02/09 03:04:39;;;;;;;3.70;2.60;;;;;;;1.44;100.00;98287.63;4999209;28;20273;-81
2024/02/09 03:07:06;;;;;;;3.17;2.50;;;;;;;1.43;100.00;98278.94;5002379;28;20207;-82
2024/02/09 03:09:34;;;;;;;3.50;2.80;;;;;;;1.46;100.00;98268.25;4998318;28;20235;-82
2024/02/09 03:12:00;;;;;;;4.30;3.20;;;;;;;1.47;100.00;98269.09;5003537;28;20207;-83
2024/02/09 03:14:27;;;;;;;4.67;3.33;;;;;;;1.47;100.00;98261.22;4999355;28;20211;-83
2024/02/09 03:16:55;;;;;;;4.37;3.17;;;;;;;1.45;100.00;98257.84;4992789;28;20837;-84
2024/02/09 03:19:21;;;;;;;4.83;3.10;;;;;;;1.43;100.00;98244.84;4994646;28;20827;-83
2024/02/09 03:21:48;;;;;;;3.90;2.93;;;;;;;1.45;100.00;98247.34;4992098;28;20215;-83
2024/02/09 03:24:15;;;;;;;5.27;3.03;;;;;;;1.45;100.00;98247.34;4998951;28;20210;-83
2024/02/09 03:26:43;;;;;;;5.63;3.43;;;;;;;1.47;100.00;98235.81;4999074;28;20200;-82
2024/02/09 03:29:09;;;;;;;3.67;3.03;;;;;;;1.50;100.00;98240.03;4999815;28;20334;-83
2024/02/09 03:31:36;;;;;;;3.90;3.00;;;;;;;1.51;100.00;98239.09;4995185;28;20210;-82
2024/02/09 03:34:02;;;;;;;3.93;3.17;;;;;;;1.51;100.00;98233.84;4998023;28;20572;-85
2024/02/09 03:36:29;;;;;;;4.10;2.83;;;;;;;1.53;100.00;98227.56;4998140;28;20226;-84
2024/02/09 03:38:56;;;;;;;4.17;2.90;;;;;;;1.56;100.00;98229.16;4995536;28;20223;-84
2024/02/09 03:41:25;;;;;;;4.27;3.17;;;;;;;1.58;100.00;98225.50;4992374;28;20224;-81
2024/02/09 03:43:53;;;;;;;4.47;3.10;;;;;;;1.56;100.00;98222.13;5001259;28;20647;-82
2024/02/09 03:46:20;;;;;;;4.47;3.37;;;;;;;1.59;100.00;98215.84;4996932;28;20207;-83
2024/02/09 03:48:46;;;;;;;3.60;2.77;;;;;;;1.60;100.00;98207.03;4997850;28;21161;-83
2024/02/09 03:51:13;;;;;;;4.43;3.20;;;;;;;1.58;100.00;98199.25;4994696;28;20585;-83
2024/02/09 03:53:39;;;;;;;4.27;3.17;;;;;;;1.60;100.00;98199.16;5001166;28;20575;-84
2024/02/09 03:56:06;;;;;;;4.83;3.03;;;;;;;1.60;100.00;98196.53;5004172;28;20215;-82
2024/02/09 03:58:33;;;;;;;4.20;2.90;;;;;;;1.56;100.00;98195.91;4989674;28;20696;-83
2024/02/09 04:01:02;;;;;;;4.80;3.33;;;;;;;1.58;100.00;98190.56;5003951;28;20681;-83
2024/02/09 04:03:29;;;;;;;4.60;3.10;;;;;;;1.57;100.00;98191.50;4997126;28;20222;-82
2024/02/09 04:05:56;;;;;;;4.13;3.07;;;;;;;1.58;100.00;98178.28;4999746;28;20209;-84
2024/02/09 04:08:23;;;;;;;5.73;3.87;;;;;;;1.61;100.00;98185.09;4996247;28;20696;-84
2024/02/09 04:10:49;;;;;;;5.17;3.47;;;;;;;1.61;100.00;98182.47;4998667;28;20216;-82
2024/02/09 04:13:16;;;;;;;4.13;2.87;;;;;;;1.61;100.00;98183.28;4999153;28;20208;-82
2024/02/09 04:15:42;;;;;;;5.30;3.30;;;;;;;1.59;100.00;98185.22;4998181;28;20216;-83
2024/02/09 04:18:10;;;;;;;5.37;3.50;;;;;;;1.60;100.00;98186.03;4991108;28;20227;-83
2024/02/09 04:20:37;;;;;;;5.10;3.43;;;;;;;1.57;100.00;98187.09;4998553;28;20214;-83
2024/02/09 04:23:04;;;;;;;6.80;4.17;;;;;;;1.60;100.00;98178.19;4996107;28;20214;-83
2024/02/09 04:25:30;;;;;;;5.20;3.37;;;;;;;1.60;100.00;98179.03;4996102;28;20204;-82
2024/02/09 04:28:00;;;;;;;6.23;3.90;;;;;;;1.63;100.00;98167.44;4992641;28;20199;-83
2024/02/09 04:30:26;;;;;;;5.40;3.97;;;;;;;1.62;100.00;98161.38;4999222;28;20262;-83
2024/02/09 04:32:52;;;;;;;7.57;4.80;;;;;;;1.64;100.00;98163.88;4996898;28;20211;-83
2024/02/09 04:35:24;;;;;;;6.27;3.50;;;;;;;1.68;100.00;98160.13;4999479;28;20214;-83
2024/02/09 04:37:51;;;;;;;5.17;3.33;;;;;;;1.70;100.00;98155.63;4995853;28;20204;-83
2024/02/09 04:40:19;;;;;;;7.43;4.13;;;;;;;1.70;100.00;98156.47;4996332;28;20214;-83
2024/02/09 04:42:45;;;;;;;5.73;3.97;;;;;;;1.72;100.00;98159.81;4993783;28;20207;-83
2024/02/09 04:45:12;;;;;;;6.60;4.10;;;;;;;1.74;100.00;98150.06;5003275;28;20211;-84
2024/02/09 04:47:38;;;;;;;6.00;4.33;;;;;;;1.75;100.00;98150.91;4995276;28;20208;-82
2024/02/09 04:50:06;;;;;;;6.80;4.47;;;;;;;1.76;100.00;98155.22;4993828;28;20839;-83
2024/02/09 04:52:34;;;;;;;7.03;4.50;;;;;;;1.79;100.00;98148.94;4992182;28;20211;-83
2024/02/09 04:55:00;;;;;;;7.50;4.53;;;;;;;1.79;100.00;98144.53;4992351;28;20223;-84
2024/02/09 04:57:27;;;;;;;5.93;4.40;;;;;;;1.81;100.00;98136.50;4995943;28;20207;-83
2024/02/09 04:59:54;;;;;;;6.30;4.20;;;;;;;1.80;100.00;98127.81;4998323;28;20285;-83
2024/02/09 05:02:20;;;;;;;6.60;4.53;;;;;;;1.82;100.00;98127.69;5001144;28;20211;-83
2024/02/09 05:04:48;;;;;;;6.17;4.37;;;;;;;1.83;100.00;98124.97;4997011;28;20213;-83
2024/02/09 05:07:14;;;;;;;7.67;4.33;;;;;;;1.86;100.00;98127.41;4994747;28;20207;-82
2024/02/09 05:09:42;;;;;;;6.63;4.40;;;;;;;1.89;100.00;98118.47;4995090;28;20250;-83
2024/02/09 05:12:08;;;;;;;7.03;4.47;;;;;;;1.88;100.00;98114.19;4986071;28;20227;-82
2024/02/09 05:14:36;;;;;;;6.13;3.87;;;;;;;1.88;100.00;98116.78;4998606;28;20203;-83
2024/02/09 05:17:02;;;;;;;7.50;4.37;;;;;;;1.85;100.00;98117.84;4991762;28;20214;-83
2024/02/09 05:19:30;;;;;;;7.23;4.67;;;;;;;1.87;100.00;98118.59;4987856;28;20873;-82
2024/02/09 05:21:57;;;;;;;7.57;4.87;;;;;;;1.86;100.00;98116.91;4992647;28;20215;-82
2024/02/09 05:24:25;;;;;;;6.27;4.33;;;;;;;1.87;100.00;98105.47;4992722;28;20220;-83
2024/02/09 05:26:52;;;;;;;7.57;4.87;;;;;;;1.89;100.00;98103.56;4992495;28;20204;-83
2024/02/09 05:29:19;;;;;;;7.10;4.67;;;;;;;1.92;100.00;98102.53;4992962;28;20666;-83
2024/02/09 05:31:46;;;;;;;7.30;4.70;;;;;;;1.92;100.00;98097.28;4989044;28;20204;-84
2024/02/09 05:34:12;;;;;;;7.43;5.20;;;;;;;1.99;100.00;98101.97;4992921;28;20214;-83
2024/02/09 05:36:39;;;;;;;7.60;4.90;;;;;;;2.00;100.00;98100.19;4993521;28;20271;-83
2024/02/09 05:39:08;;;;;;;6.90;4.80;;;;;;;1.99;100.00;98072.25;4994081;28;20230;-83
2024/02/09 05:41:35;;;;;;;7.67;5.87;;;;;;;2.01;100.00;98094.84;4993568;28;20788;-84
2024/02/09 05:44:02;;;;;;;7.57;5.30;;;;;;;2.03;100.00;98089.50;5001972;28;20199;-83
2024/02/09 05:46:29;;;;;;;8.50;5.63;;;;;;;2.02;100.00;98091.28;4994243;28;20203;-85
2024/02/09 05:48:56;;;;;;;8.87;5.60;;;;;;;2.03;100.00;98084.25;4996626;28;20238;-84
2024/02/09 05:51:23;;;;;;;7.40;5.27;;;;;;;2.03;100.00;98081.63;4998975;28;20575;-85
2024/02/09 05:53:50;;;;;;;8.90;5.23;;;;;;;2.06;100.00;98084.03;4997510;28;20211;-83
2024/02/09 05:56:16;;;;;;;9.07;5.50;;;;;;;2.07;100.00;98083.94;4996948;28;20581;-84
2024/02/09 05:58:43;;;;;;;10.60;5.70;;;;;;;2.08;100.00;98082.16;4999722;28;20237;-83
2024/02/09 06:01:11;;;;;;;10.43;5.83;;;;;;;2.09;100.00;98076.78;5002773;28;20547;-85
2024/02/09 06:03:39;;;;;;;11.80;5.93;;;;;;;2.12;100.00;98073.13;5001729;28;20534;-85
2024/02/09 06:06:06;;;;;;;9.93;5.97;;;;;;;2.15;100.00;98069.44;4997229;28;20219;-83
2024/02/09 06:08:33;;;;;;;10.20;5.57;;;;;;;2.16;100.00;98068.47;4992545;28;20692;-83
2024/02/09 06:11:00;;;;;;;9.47;6.17;;;;;;;2.19;100.00;98069.09;5004001;28;20597;-84
2024/02/09 06:13:26;;;;;;;11.00;6.33;;;;;;;2.21;100.00;98061.09;4996651;28;20219;-84
2024/02/09 06:15:58;;;;;;;9.73;5.50;;;;;;;2.22;100.00;98061.00;4999539;28;20679;-85
2024/02/09 06:18:26;;;;;;;10.37;6.13;;;;;;;2.23;100.00;98067.09;4994228;28;20238;-84
2024/02/09 06:20:53;;;;;;;11.30;6.33;;;;;;;2.23;100.00;98062.69;4997118;28;20203;-85
2024/02/09 06:23:20;;;;;;;11.23;6.40;;;;;;;2.25;100.00;98062.56;4992197;28;20200;-85
2024/02/09 06:25:49;;;;;;;9.23;5.97;;;;;;;2.27;100.00;98065.94;5001825;28;20214;-85
2024/02/09 06:28:16;;;;;;;9.23;6.37;;;;;;;2.26;100.00;98065.09;4997905;28;20234;-84
2024/02/09 06:30:43;;;;;;;8.90;5.93;;;;;;;2.28;100.00;98060.56;4996941;28;20235;-85
2024/02/09 06:33:09;;;;;;;10.80;6.27;;;;;;;2.29;100.00;98062.25;4995824;28;20203;-84
2024/02/09 06:35:37;;;;;;;10.00;6.80;;;;;;;2.29;100.00;98064.88;4995374;28;20211;-85
2024/02/09 06:38:05;;;;;;;10.87;6.40;;;;;;;2.29;100.00;98054.38;5003770;28;20210;-84
2024/02/09 06:40:32;;;;;;;12.00;7.03;;;;;;;2.33;100.00;98063.69;4994742;28;20214;-84
2024/02/09 06:42:58;;;;;;;12.03;7.00;;;;;;;2.36;100.00;98060.00;4998081;28;20207;-84
2024/02/09 06:45:25;;;;;;;12.13;6.60;;;;;;;2.37;100.00;98057.28;4996057;28;20203;-84
2024/02/09 06:47:51;;;;;;;12.43;7.13;;;;;;;2.39;100.00;98065.91;5005434;28;20212;-84
2024/02/09 06:50:19;;;;;;;11.10;6.60;;;;;;;2.40;100.00;98066.75;5001578;28;20227;-85
2024/02/09 06:52:48;;;;;;;11.80;7.27;;;;;;;2.43;100.00;98061.28;4997491;28;20216;-85
2024/02/09 06:55:14;;;;;;;9.90;6.43;;;;;;;2.43;100.00;98064.75;4994618;28;20211;-85
2024/02/09 06:57:44;;;;;;;10.90;7.10;;;;;;;2.45;100.00;98067.25;4996388;28;20230;-84
2024/02/09 07:00:13;;;;;;;12.57;7.17;;;;;;;2.45;100.00;98067.25;4994147;28;20228;-84
2024/02/09 07:02:40;;;;;;;12.17;7.20;;;;;;;2.44;100.00;98068.22;5000033;28;20199;-83
2024/02/09 07:05:10;;;;;;;11.20;6.80;;;;;;;2.46;100.00;98063.69;5003622;28;20236;-83
2024/02/09 07:07:38;;;;;;;13.27;6.93;;;;;;;2.48;100.00;98066.22;4996977;28;20212;-84
2024/02/09 07:10:07;;;;;;;15.33;8.77;;;;;;;2.48;100.00;98061.78;4993967;28;20598;-84
2024/02/09 07:12:33;;;;;;;11.30;7.57;;;;;;;2.51;100.00;98066.78;4993144;28;20210;-84
2024/02/09 07:15:01;;;;;;;11.83;7.70;;;;;;;2.51;100.00;98061.53;4992196;28;20212;-84
2024/02/09 07:17:28;;;;;;;12.90;7.03;;;;;;;2.52;100.00;98071.09;4996803;28;20207;-84
2024/02/09 07:19:54;;;;;;;12.73;7.50;;;;;;;2.53;100.00;98062.28;4997055;28;20592;-83
2024/02/09 07:22:21;;;;;;;12.53;7.67;;;;;;;2.54;100.00;98068.38;5000707;28;20807;-84
2024/02/09 07:24:47;;;;;;;12.20;7.47;;;;;;;2.56;100.00;98069.94;4996195;28;20207;-84
2024/02/09 07:27:15;;;;;;;12.40;7.67;;;;;;;2.58;100.00;98062.78;4995654;28;20204;-83
2024/02/09 07:29:44;;;;;;;13.07;7.70;;;;;;;2.60;100.00;98067.94;4996061;28;20231;-83
2024/02/09 07:32:11;;;;;;;12.10;6.93;;;;;;;2.60;100.00;98058.28;4999145;28;20212;-83
2024/02/09 07:34:37;;;;;;;13.13;8.00;;;;;;;2.64;100.00;98053.63;4989313;28;20204;-84
2024/02/09 07:37:04;;;;;;;12.53;7.43;;;;;;;2.63;100.00;98052.81;4999996;28;20676;-83
2024/02/09 07:39:31;;;;;;;12.83;7.27;;;;;;;2.65;100.00;98056.16;4993056;28;20227;-84
2024/02/09 07:41:57;;;;;;;11.53;6.83;;;;;;;2.68;100.00;98055.09;4993283;28;20242;-84
2024/02/09 07:44:26;;;;;;;13.63;8.20;;;;;;;2.70;100.00;98061.91;4997871;28;20295;-85
2024/02/09 07:46:54;;;;;;;11.60;7.27;;;;;;;2.73;100.00;98055.59;4996497;28;20206;-85
2024/02/09 07:49:22;;;;;;;13.73;7.50;;;;;;;2.73;100.00;98053.78;4992259;28;20230;-83
2024/02/09 07:51:49;;;;;;;12.93;8.07;;;;;;;2.74;100.00;98052.00;5006047;28;20770;-85
2024/02/09 07:54:15;;;;;;;11.33;7.40;;;;;;;2.75;100.00;98046.66;4993672;28;20295;-85
2024/02/09 07:56:42;;;;;;;11.60;7.73;;;;;;;2.77;100.00;98050.00;4997760;28;20211;-84
2024/02/09 07:59:08;;;;;;;13.40;8.13;;;;;;;2.82;100.00;98043.56;4992211;28;20231;-84
2024/02/09 08:01:36;;;;;;;12.57;7.83;;;;;;;2.83;100.00;98047.88;4996195;28;20600;-85
2024/02/09 08:04:02;;;;;;;11.13;7.30;;;;;;;2.86;100.00;98034.53;4999561;28;20212;-85
2024/02/09 08:06:29;;;;;;;11.87;7.77;;;;;;;2.90;100.00;98049.94;4994746;28;20203;-84
2024/02/09 08:08:56;;;;;;;13.73;7.87;;;;;;;2.92;100.00;98045.41;4995925;28;20227;-84
2024/02/09 08:11:23;;;;;;;15.83;8.23;;;;;;;2.95;100.00;98041.72;4997430;28;20243;-84
2024/02/09 08:13:50;;;;;;;15.03;8.70;;;;;;;2.98;100.00;98046.75;4998973;28;20598;-85
2024/02/09 08:16:17;;;;;;;13.47;8.13;;;;;;;3.01;100.00;98042.13;4998912;28;20207;-85
2024/02/09 08:18:45;;;;;;;15.10;9.00;;;;;;;3.05;100.00;98037.44;4995800;28;20252;-83
2024/02/09 08:21:11;;;;;;;14.17;8.67;;;;;;;3.05;100.00;98035.66;4998297;28;20203;-85
2024/02/09 08:23:39;;;;;;;14.40;8.13;;;;;;;3.08;100.00;98035.44;4996565;28;20294;-84
2024/02/09 08:26:05;;;;;;;15.70;8.47;;;;;;;3.11;100.00;98037.00;4993067;28;20242;-84
2024/02/09 08:28:32;;;;;;;14.03;8.33;;;;;;;3.14;100.00;98034.97;4991709;28;20227;-84
2024/02/09 08:30:58;;;;;;;17.37;8.70;;;;;;;3.15;100.00;98030.56;4992055;28;20727;-85
2024/02/09 08:33:25;;;;;;;15.33;8.57;;;;;;;3.20;100.00;98035.47;4996296;28;20230;-84
2024/02/09 08:35:54;;;;;;;12.13;8.23;;;;;;;3.23;100.00;98024.72;4994088;28;20235;-84
2024/02/09 08:38:21;;;;;;;17.93;9.33;;;;;;;3.26;100.00;98027.94;4992230;28;20294;-85
2024/02/09 08:40:48;;;;;;;14.47;9.47;;;;;;;3.29;100.00;98027.72;4998495;28;20212;-85
2024/02/09 08:43:14;;;;;;;15.40;8.47;;;;;;;3.33;100.00;98017.81;4992152;28;20297;-85
2024/02/09 08:45:41;;;;;;;15.80;8.80;;;;;;;3.35;100.00;98019.38;4995714;28;20207;-85
2024/02/09 08:48:08;;;;;;;13.50;8.23;;;;;;;3.40;100.00;98006.69;4995122;28;20222;-85
2024/02/09 08:50:34;;;;;;;16.73;8.73;;;;;;;3.43;100.00;98001.19;4991426;28;20219;-84
2024/02/09 08:53:04;;;;;;;16.50;8.70;;;;;;;3.47;100.00;97994.75;4992509;28;20708;-84
2024/02/09 08:55:30;;;;;;;15.50;9.17;;;;;;;3.51;100.00;98003.25;4995782;28;20685;-85
2024/02/09 08:57:58;;;;;;;15.83;9.43;;;;;;;3.55;100.00;97993.34;4995156;28;20199;-85
2024/02/09 09:00:25;;;;;;;16.87;8.90;;;;;;;3.58;100.00;97999.22;4993106;28;20266;-84
2024/02/09 09:02:52;;;;;;;15.17;9.70;;;;;;;3.64;100.00;97996.09;4997743;28;20204;-85
2024/02/09 09:05:19;;;;;;;16.97;9.17;;;;;;;3.69;100.00;97995.75;4997007;28;20214;-84
2024/02/09 09:07:45;;;;;;;14.33;8.93;;;;;;;3.74;100.00;97996.22;4998824;28;20215;-84
2024/02/09 09:10:13;;;;;;;18.63;10.57;;;;;;;3.80;100.00;97991.31;4995096;28;20231;-85
2024/02/09 09:12:40;;;;;;;16.47;10.10;;;;;;;3.87;100.00;97993.47;4995605;28;20208;-84
2024/02/09 09:15:07;;;;;;;18.17;9.50;;;;;;;3.93;100.00;97988.56;4994739;28;20203;-84
2024/02/09 09:17:34;;;;;;;16.00;9.50;;;;;;;4.02;100.00;97984.38;4993811;28;20216;-82
2024/02/09 09:20:00;;;;;;;22.83;10.70;;;;;;;4.07;100.00;97998.00;4998382;28;20295;-85
2024/02/09 09:22:26;;;;;;;23.17;11.60;;;;;;;4.14;100.00;98001.81;5001434;28;20203;-84
2024/02/09 09:24:54;;;;;;;25.87;11.73;;;;;;;4.21;100.00;97994.28;5002854;28;20203;-84
2024/02/09 09:27:23;;;;;;;23.43;11.70;;;;;;;4.31;100.00;97998.69;4998728;28;20314;-84
2024/02/09 09:29:52;;;;;;;23.17;10.80;;;;;;;4.47;100.00;97998.31;5003318;28;20318;-84
2024/02/09 09:32:20;;;;;;;30.13;11.90;;;;;;;4.63;100.00;97988.19;4996844;28;20627;-83
2024/02/09 09:34:46;;;;;;;27.23;11.50;;;;;;;4.80;100.00;97982.38;4997920;28;20644;-83
2024/02/09 09:37:13;;;;;;;28.27;10.70;;;;;;;4.97;100.00;97980.16;5000587;28;20218;-83
2024/02/09 09:39:39;;;;;;;18.20;8.00;;;;;;;5.20;100.00;97971.13;4998314;28;20234;-83
2024/02/09 09:42:07;;;;;;;15.17;8.10;;;;;;;5.50;100.00;97960.63;4996908;28;20215;-83
2024/02/09 09:44:35;;;;;;;16.00;6.30;;;;;;;5.77;100.00;97970.63;4998448;28;20262;-84
2024/02/09 09:47:01;;;;;;;9.73;4.43;;;;;;;6.06;100.00;97967.31;5000990;28;20203;-84
2024/02/09 09:49:28;;;;;;;8.17;3.67;;;;;;;6.46;100.00;97968.09;4994643;28;20227;-84
2024/02/09 09:51:59;;;;;;;8.67;3.80;;;;;;;6.75;100.00;97965.50;4999567;28;20230;-84
2024/02/09 09:54:30;;;;;;;6.57;3.83;;;;;;;7.00;100.00;97965.88;4995270;28;20207;-84
2024/02/09 09:57:00;;;;;;;7.17;3.87;;;;;;;7.23;100.00;97959.31;5000907;28;20601;-84
2024/02/09 09:59:27;;;;;;;6.43;3.77;;;;;;;7.41;100.00;97960.25;4997297;28;20224;-84
2024/02/09 10:01:55;;;;;;;5.90;3.47;;;;;;;7.61;100.00;97972.50;4990288;28;20395;-84
2024/02/09 10:04:23;;;;;;;9.03;4.53;;;;;;;7.76;100.00;97966.72;4998416;28;20691;-84
2024/02/09 10:06:50;;;;;;;4.40;2.80;;;;;;;7.89;100.00;97975.16;4994707;28;20203;-84
2024/02/09 10:09:17;;;;;;;4.43;2.43;;;;;;;7.99;100.00;97974.16;4995993;28;20223;-85
2024/02/09 10:11:45;;;;;;;3.87;2.23;;;;;;;8.08;100.00;97975.09;4998419;28;20235;-84
2024/02/09 10:14:12;;;;;;;4.43;2.90;;;;;;;8.14;100.00;97969.22;4996173;28;20703;-83
2024/02/09 10:16:40;;;;;;;3.53;3.03;;;;;;;8.25;100.00;97961.06;4996708;28;20218;-83
2024/02/09 10:19:08;;;;;;;3.27;2.17;;;;;;;8.32;100.00;97964.81;4999960;28;20226;-84
2024/02/09 10:21:34;;;;;;;3.20;1.70;;;;;;;8.38;100.00;97965.22;4995175;28;20210;-84
2024/02/09 10:24:02;;;;;;;5.17;2.70;;;;;;;8.43;100.00;97958.47;5000590;28;20204;-84
2024/02/09 10:26:29;;;;;;;2.07;1.40;;;;;;;8.47;100.00;97959.84;4994225;28;20207;-84
2024/02/09 10:28:55;;;;;;;3.13;1.70;;;;;;;8.56;100.00;97968.75;4995034;28;20230;-81
2024/02/09 10:31:24;;;;;;;5.77;3.27;;;;;;;8.58;100.00;97967.59;4996149;28;20228;-81
2024/02/09 10:33:50;;;;;;;4.70;2.83;;;;;;;8.63;100.00;97961.84;4992657;28;20207;-81
2024/02/09 10:36:18;;;;;;;3.73;2.33;;;;;;;8.66;100.00;97965.03;4993395;28;20230;-81
2024/02/09 10:38:48;;;;;;;3.33;2.13;;;;;;;8.72;100.00;97963.59;4996305;28;20227;-82
2024/02/09 10:41:17;;;;;;;7.23;2.43;;;;;;;8.76;100.00;97964.13;4996017;28;20207;-83
2024/02/09 10:43:47;;;;;;;5.00;2.00;;;;;;;8.78;100.00;97965.63;4988834;28;20203;-81
2024/02/09 10:46:17;;;;;;;4.30;2.23;;;;;;;8.75;100.00;97965.13;4994778;28;20276;-83
2024/02/09 10:48:47;;;;;;;5.10;2.50;;;;;;;8.80;100.00;97960.16;4996226;28;20747;-82
2024/02/09 10:51:17;;;;;;;3.03;1.97;;;;;;;8.84;100.00;97962.38;5014827;28;20578;-82
2024/02/09 10:53:52;;;;;;;3.27;2.10;;;;;;;8.88;100.00;97969.06;4999310;28;20218;-83
2024/02/09 10:56:20;;;;;;;3.97;1.57;;;;;;;8.93;100.00;97966.78;4993940;28;20210;-81
2024/02/09 10:58:48;;;;;;;4.63;1.63;;;;;;;9.02;100.00;97968.50;5000705;28;20223;-81
2024/02/09 11:01:14;;;;;;;3.27;1.53;;;;;;;9.12;100.00;97965.78;5001965;28;20218;-81
2024/02/09 11:03:42;;;;;;;2.57;1.30;;;;;;;9.22;100.00;97971.00;5001689;28;20199;-81
2024/02/09 11:06:10;;;;;;;3.17;1.17;;;;;;;9.30;100.00;97963.94;5003059;28;20224;-80
2024/02/09 11:08:37;;;;;;;2.17;1.50;;;;;;;9.36;100.00;97955.34;4998167;28;20230;-80
2024/02/09 11:11:05;;;;;;;1.97;1.10;;;;;;;9.45;100.00;97950.09;4996577;28;20279;-81
2024/02/09 11:13:33;;;;;;;3.37;1.30;;;;;;;9.52;100.00;97951.13;4999610;28;20228;-81
2024/02/09 11:16:01;;;;;;;3.23;1.07;;;;;;;9.56;100.00;97955.16;5003712;28;20206;-81
2024/02/09 11:18:32;;;;;;;2.50;1.20;;;;;;;9.60;100.00;97953.84;4996595;28;20224;-81
2024/02/09 11:21:05;;;;;;;2.07;0.90;;;;;;;9.67;100.00;97947.72;4998645;28;20327;-81
2024/02/09 11:23:32;;;;;;;1.60;0.90;;;;;;;9.74;100.00;97940.81;4990624;28;20207;-80
2024/02/09 11:25:59;;;;;;;2.63;0.90;;;;;;;9.81;100.00;97941.03;4999301;28;20214;-81
2024/02/09 11:28:27;;;;;;;2.00;1.20;;;;;;;9.87;100.00;97934.22;5001377;28;20711;-81
2024/02/09 11:30:56;;;;;;;2.90;1.47;;;;;;;9.98;100.00;97936.63;4999943;28;20625;-80
2024/02/09 11:33:23;;;;;;;2.00;1.63;;;;;;;10.04;100.00;97928.81;4991383;28;20463;-79
2024/02/09 11:35:49;;;;;;;2.67;1.17;;;;;;;10.10;100.00;97930.00;4996459;28;20580;-79
2024/02/09 11:38:20;;;;;;;3.70;1.57;;;;;;;10.23;100.00;97930.41;4995344;28;20600;-81
2024/02/09 11:40:47;;;;;;;2.07;1.67;;;;;;;10.27;100.00;97928.28;4996713;28;20217;-80
2024/02/09 11:43:14;;;;;;;2.63;2.00;;;;;;;10.35;100.00;97923.00;4995560;28;20220;-80
2024/02/09 11:45:43;;;;;;;2.53;1.60;;;;;;;10.37;100.00;97921.00;4989980;28;20199;-80
2024/02/09 11:48:10;;;;;;;3.43;1.50;;;;;;;10.39;100.00;97919.81;4997616;28;20215;-79
2024/02/09 11:50:37;;;;;;;2.67;1.00;;;;;;;10.43;100.00;97918.50;4990447;28;20211;-81
2024/02/09 11:53:04;;;;;;;2.23;0.73;;;;;;;10.53;100.00;97921.03;4994418;28;20257;-80
2024/02/09 11:55:31;;;;;;;2.33;0.90;;;;;;;10.59;100.00;97903.56;4991106;28;20579;-80
2024/02/09 11:57:59;;;;;;;1.97;1.20;;;;;;;10.63;100.00;97918.22;4996171;28;20205;-80
2024/02/09 12:00:26;;;;;;;3.83;2.70;;;;;;;10.70;100.00;97916.56;4993235;28;20200;-81
2024/02/09 12:02:55;;;;;;;2.90;1.20;;;;;;;10.77;100.00;97904.25;4994522;28;20214;-80
2024/02/09 12:05:22;;;;;;;1.63;1.00;;;;;;;10.86;100.00;97913.09;4991950;28;20254;-80
2024/02/09 12:07:50;;;;;;;5.57;3.57;;;;;;;10.93;100.00;97911.41;4998491;28;20209;-81
2024/02/09 12:10:17;;;;;;;1.83;1.10;;;;;;;10.98;100.00;97917.91;5000405;28;20232;-81
2024/02/09 12:12:44;;;;;;;1.73;0.90;;;;;;;11.02;100.00;97913.09;4994862;28;20229;-80
2024/02/09 12:15:10;;;;;;;2.17;0.90;;;;;;;11.04;100.00;97908.44;4993158;28;20577;-81
2024/02/09 12:17:37;;;;;;;1.30;0.90;;;;;;;11.10;100.00;97907.78;4993918;28;20207;-81
2024/02/09 12:20:10;;;;;;;2.40;1.00;;;;;;;11.22;100.00;97905.59;4995591;28;20228;-80
2024/02/09 12:22:37;;;;;;;2.63;1.07;;;;;;;11.29;100.00;97895.91;5004696;28;20232;-81
2024/02/09 12:25:04;;;;;;;1.57;0.90;;;;;;;11.36;100.00;97908.41;4999877;28;20859;-81
2024/02/09 12:27:31;;;;;;;3.37;1.37;;;;;;;11.53;100.00;97909.22;4998494;28;20221;-81
2024/02/09 12:29:57;;;;;;;0.93;0.70;;;;;;;11.58;100.00;97901.56;4992026;28;20747;-81
2024/02/09 12:32:24;;;;;;;2.43;1.40;;;;;;;11.66;100.00;97904.19;5004676;28;20229;-81
2024/02/09 12:34:51;;;;;;;1.70;1.00;;;;;;;11.71;100.00;97907.16;4994487;28;20238;-81
2024/02/09 12:37:19;;;;;;;1.43;0.70;;;;;;;11.78;100.00;97897.53;4994334;28;20214;-81
2024/02/09 12:39:48;;;;;;;1.50;0.80;;;;;;;11.87;100.00;97911.66;4997373;28;20227;-80
2024/02/09 12:42:18;;;;;;;1.70;1.07;;;;;;;11.90;100.00;97894.47;4992762;28;20618;-81
2024/02/09 12:44:45;;;;;;;1.87;0.80;;;;;;;11.95;100.00;97900.97;4996708;28;20221;-81
2024/02/09 12:47:11;;;;;;;2.53;1.30;;;;;;;11.98;100.00;97895.28;4996539;28;20800;-80
2024/02/09 12:49:38;;;;;;;2.60;1.13;;;;;;;12.08;100.00;97900.41;5001618;28;20710;-81
2024/02/09 12:52:08;;;;;;;2.33;0.97;;;;;;;12.13;100.00;97895.38;4998340;28;20234;-81
2024/02/09 12:54:36;;;;;;;1.60;0.90;;;;;;;12.15;100.00;97904.06;4990858;28;20220;-81
2024/02/09 12:57:02;;;;;;;1.80;1.10;;;;;;;12.20;99.36;97906.19;4995403;28;20207;-81
2024/02/09 12:59:31;;;;;;;3.47;1.67;;;;;;;12.18;99.02;97904.50;4992392;28;20238;-81
2024/02/09 13:01:58;;;;;;;1.93;0.83;;;;;;;12.18;99.74;97893.84;4989867;28;20578;-83
2024/02/09 13:04:25;;;;;;;1.63;0.70;;;;;;;12.19;98.57;97892.00;4996631;28;20203;-81
2024/02/09 13:06:51;;;;;;;2.80;1.20;;;;;;;12.22;99.33;97889.00;4988576;28;21445;-81
2024/02/09 13:09:18;;;;;;;3.13;1.03;;;;;;;12.24;98.01;97900.31;4990279;28;20591;-80
2024/02/09 13:11:51;;;;;;;1.00;0.87;;;;;;;12.24;97.59;97904.84;4990163;28;20238;-82
2024/02/09 13:14:19;;;;;;;1.93;1.00;;;;;;;12.33;97.03;97893.13;4996649;28;20207;-81
2024/02/09 13:16:48;;;;;;;13.77;10.67;;;;;;;12.34;97.59;97895.63;4999169;28;20235;-81
2024/02/09 13:19:15;;;;;;;5.40;2.30;;;;;;;12.40;95.50;97905.56;4993342;28;20983;-82